sensor_id;sensor_type;location;lat;lon;timestamp;temperature;humidity
8664;DHT22;4369;47.842;13.096;2023-02-02T00:01:44;3.20;99.90
8664;DHT22;4369;47.842;13.096;2023-02-02T00:04:15;3.20;99.90
8664;DHT22;4369;47.842;13.096;2023-02-02T00:06:43;3.20;99.90
8664;DHT22;4369;47.842;13.096;2023-02-02T00:09:12;3.20;99.90
8664;DHT22;4369;47.842;13.096;2023-02-02T00:11:39;3.20;99.90
8664;DHT22;4369;47.842;13.096;2023-02-02T00:14:08;3.20;99.90
8664;DHT22;4369;47.842;13.096;2023-02-02T00:16:42;3.20;99.90
8664;DHT22;4369;47.842;13.096;2023-02-02T00:19:12;3.20;99.90
8664;DHT22;4369;47.842;13.096;2023-02-02T00:21:39;3.20;99.90
8664;DHT22;4369;47.842;13.096;2023-02-02T00:24:06;3.20;99.90
8664;DHT22;4369;47.842;13.096;2023-02-02T00:26:34;3.20;99.90
8664;DHT22;4369;47.842;13.096;2023-02-02T00:29:01;3.10;99.90
8664;DHT22;4369;47.842;13.096;2023-02-02T00:31:30;3.10;99.90
8664;DHT22;4369;47.842;13.096;2023-02-02T00:33:57;3.10;99.90
8664;DHT22;4369;47.842;13.096;2023-02-02T00:36:24;3.10;99.90
8664;DHT22;4369;47.842;13.096;2023-02-02T00:38:51;3.10;99.90
8664;DHT22;4369;47.842;13.096;2023-02-02T00:41:18;3.00;99.90
8664;DHT22;4369;47.842;13.096;2023-02-02T00:43:45;3.00;99.90
8664;DHT22;4369;47.842;13.096;2023-02-02T00:46:33;3.10;99.90
8664;DHT22;4369;47.842;13.096;2023-02-02T00:48:59;3.10;99.90
8664;DHT22;4369;47.842;13.096;2023-02-02T00:51:26;3.10;99.90
8664;DHT22;4369;47.842;13.096;2023-02-02T00:53:53;3.20;99.90
8664;DHT22;4369;47.842;13.096;2023-02-02T00:56:20;3.20;99.90
8664;DHT22;4369;47.842;13.096;2023-02-02T00:58:47;3.20;99.90
8664;DHT22;4369;47.842;13.096;2023-02-02T01:01:17;3.30;99.90
8664;DHT22;4369;47.842;13.096;2023-02-02T01:03:47;3.30;99.90
8664;DHT22;4369;47.842;13.096;2023-02-02T01:06:14;3.30;99.90
8664;DHT22;4369;47.842;13.096;2023-02-02T01:08:41;3.30;99.90
8664;DHT22;4369;47.842;13.096;2023-02-02T01:11:08;3.40;99.90
8664;DHT22;4369;47.842;13.096;2023-02-02T01:13:35;3.40;99.90
8664;DHT22;4369;47.842;13.096;2023-02-02T01:16:04;3.40;99.90
8664;DHT22;4369;47.842;13.096;2023-02-02T01:18:31;3.40;99.90
8664;DHT22;4369;47.842;13.096;2023-02-02T01:21:01;3.40;99.90
8664;DHT22;4369;47.842;13.096;2023-02-02T01:23:28;3.40;99.90
8664;DHT22;4369;47.842;13.096;2023-02-02T01:25:56;3.50;99.90
8664;DHT22;4369;47.842;13.096;2023-02-02T01:28:25;3.50;99.90
8664;DHT22;4369;47.842;13.096;2023-02-02T01:30:52;3.50;99.90
8664;DHT22;4369;47.842;13.096;2023-02-02T01:33:19;3.50;99.90
8664;DHT22;4369;47.842;13.096;2023-02-02T01:35:47;3.50;99.90
8664;DHT22;4369;47.842;13.096;2023-02-02T01:38:15;3.50;99.90
8664;DHT22;4369;47.842;13.096;2023-02-02T01:40:45;3.60;99.90
8664;DHT22;4369;47.842;13.096;2023-02-02T01:43:21;3.60;99.90
8664;DHT22;4369;47.842;13.096;2023-02-02T01:45:48;3.60;99.90
8664;DHT22;4369;47.842;13.096;2023-02-02T01:48:15;3.60;99.90
8664;DHT22;4369;47.842;13.096;2023-02-02T01:50:44;3.60;99.90
8664;DHT22;4369;47.842;13.096;2023-02-02T01:53:12;3.60;99.90
8664;DHT22;4369;47.842;13.096;2023-02-02T01:55:40;3.60;99.90
8664;DHT22;4369;47.842;13.096;2023-02-02T01:58:11;3.60;99.90
8664;DHT22;4369;47.842;13.096;2023-02-02T02:00:41;3.60;99.90
8664;DHT22;4369;47.842;13.096;2023-02-02T02:03:12;3.60;99.90
8664;DHT22;4369;47.842;13.096;2023-02-02T02:05:41;3.60;99.90
8664;DHT22;4369;47.842;13.096;2023-02-02T02:08:13;3.70;99.90
8664;DHT22;4369;47.842;13.096;2023-02-02T02:10:42;3.70;99.90
8664;DHT22;4369;47.842;13.096;2023-02-02T02:13:09;3.70;99.90
8664;DHT22;4369;47.842;13.096;2023-02-02T02:15:42;3.80;99.90
8664;DHT22;4369;47.842;13.096;2023-02-02T02:18:39;3.80;99.90
8664;DHT22;4369;47.842;13.096;2023-02-02T02:21:26;3.90;99.90
8664;DHT22;4369;47.842;13.096;2023-02-02T02:30:59;4.00;99.90
8664;DHT22;4369;47.842;13.096;2023-02-02T02:33:34;4.00;99.90
8664;DHT22;4369;47.842;13.096;2023-02-02T02:36:05;4.00;99.90
8664;DHT22;4369;47.842;13.096;2023-02-02T02:38:36;4.00;99.90
8664;DHT22;4369;47.842;13.096;2023-02-02T02:41:09;4.00;99.90
8664;DHT22;4369;47.842;13.096;2023-02-02T02:43:40;4.00;99.90
8664;DHT22;4369;47.842;13.096;2023-02-02T02:46:09;4.00;99.90
8664;DHT22;4369;47.842;13.096;2023-02-02T02:48:38;4.00;99.90
8664;DHT22;4369;47.842;13.096;2023-02-02T02:51:39;4.00;99.90
8664;DHT22;4369;47.842;13.096;2023-02-02T02:54:06;4.10;99.90
8664;DHT22;4369;47.842;13.096;2023-02-02T02:56:39;4.10;99.90
8664;DHT22;4369;47.842;13.096;2023-02-02T02:59:17;4.10;99.90
8664;DHT22;4369;47.842;13.096;2023-02-02T03:01:54;4.10;99.90
8664;DHT22;4369;47.842;13.096;2023-02-02T03:04:32;4.20;99.90
8664;DHT22;4369;47.842;13.096;2023-02-02T03:07:04;4.20;99.90
8664;DHT22;4369;47.842;13.096;2023-02-02T03:09:36;4.20;99.90
8664;DHT22;4369;47.842;13.096;2023-02-02T03:12:05;4.20;99.90
8664;DHT22;4369;47.842;13.096;2023-02-02T03:14:34;4.30;99.90
8664;DHT22;4369;47.842;13.096;2023-02-02T03:17:00;4.30;99.90
8664;DHT22;4369;47.842;13.096;2023-02-02T03:19:29;4.30;99.90
8664;DHT22;4369;47.842;13.096;2023-02-02T03:21:56;4.30;99.90
8664;DHT22;4369;47.842;13.096;2023-02-02T03:24:22;4.40;99.90
8664;DHT22;4369;47.842;13.096;2023-02-02T03:26:49;4.40;99.90
8664;DHT22;4369;47.842;13.096;2023-02-02T03:29:17;4.40;99.90
8664;DHT22;4369;47.842;13.096;2023-02-02T03:31:45;4.30;99.90
8664;DHT22;4369;47.842;13.096;2023-02-02T03:34:12;4.20;99.90
8664;DHT22;4369;47.842;13.096;2023-02-02T03:36:40;4.20;99.90
8664;DHT22;4369;47.842;13.096;2023-02-02T03:39:07;4.30;99.90
8664;DHT22;4369;47.842;13.096;2023-02-02T03:41:34;4.20;99.90
8664;DHT22;4369;47.842;13.096;2023-02-02T03:44:01;4.20;99.90
8664;DHT22;4369;47.842;13.096;2023-02-02T03:46:28;4.20;99.90
8664;DHT22;4369;47.842;13.096;2023-02-02T03:48:55;4.20;99.90
8664;DHT22;4369;47.842;13.096;2023-02-02T03:51:21;4.30;99.90
8664;DHT22;4369;47.842;13.096;2023-02-02T03:53:50;4.30;99.90
8664;DHT22;4369;47.842;13.096;2023-02-02T03:56:17;4.30;99.90
8664;DHT22;4369;47.842;13.096;2023-02-02T03:58:44;4.30;99.90
8664;DHT22;4369;47.842;13.096;2023-02-02T04:01:12;4.30;99.90
8664;DHT22;4369;47.842;13.096;2023-02-02T04:03:40;4.30;99.90
8664;DHT22;4369;47.842;13.096;2023-02-02T04:06:07;4.40;99.90
8664;DHT22;4369;47.842;13.096;2023-02-02T04:08:34;4.40;99.90
8664;DHT22;4369;47.842;13.096;2023-02-02T04:11:02;4.40;99.90
8664;DHT22;4369;47.842;13.096;2023-02-02T04:13:29;4.40;99.90
8664;DHT22;4369;47.842;13.096;2023-02-02T04:15:58;4.40;99.90
8664;DHT22;4369;47.842;13.096;2023-02-02T04:18:27;4.40;99.90
8664;DHT22;4369;47.842;13.096;2023-02-02T04:20:57;4.40;99.90
8664;DHT22;4369;47.842;13.096;2023-02-02T04:23:24;4.40;99.90
8664;DHT22;4369;47.842;13.096;2023-02-02T04:25:51;4.50;99.90
8664;DHT22;4369;47.842;13.096;2023-02-02T04:28:20;4.50;99.90
8664;DHT22;4369;47.842;13.096;2023-02-02T04:30:48;4.50;99.90
8664;DHT22;4369;47.842;13.096;2023-02-02T04:33:15;4.50;99.90
8664;DHT22;4369;47.842;13.096;2023-02-02T04:35:42;4.50;99.90
8664;DHT22;4369;47.842;13.096;2023-02-02T04:38:09;4.50;99.90
8664;DHT22;4369;47.842;13.096;2023-02-02T04:40:37;4.50;99.90
8664;DHT22;4369;47.842;13.096;2023-02-02T04:43:04;4.50;99.90
8664;DHT22;4369;47.842;13.096;2023-02-02T04:45:33;4.40;99.90
8664;DHT22;4369;47.842;13.096;2023-02-02T04:48:00;4.50;99.90
8664;DHT22;4369;47.842;13.096;2023-02-02T04:50:27;4.40;99.90
8664;DHT22;4369;47.842;13.096;2023-02-02T04:52:54;4.40;99.90
8664;DHT22;4369;47.842;13.096;2023-02-02T04:55:22;4.40;99.90
8664;DHT22;4369;47.842;13.096;2023-02-02T04:57:51;4.40;99.90
8664;DHT22;4369;47.842;13.096;2023-02-02T05:00:18;4.40;99.90
8664;DHT22;4369;47.842;13.096;2023-02-02T05:02:46;4.40;99.90
8664;DHT22;4369;47.842;13.096;2023-02-02T05:05:13;4.40;99.90
8664;DHT22;4369;47.842;13.096;2023-02-02T05:07:40;4.50;99.90
8664;DHT22;4369;47.842;13.096;2023-02-02T05:10:08;4.50;99.90
8664;DHT22;4369;47.842;13.096;2023-02-02T05:12:35;4.50;99.90
8664;DHT22;4369;47.842;13.096;2023-02-02T05:15:03;4.50;99.90
8664;DHT22;4369;47.842;13.096;2023-02-02T05:17:30;4.50;99.90
8664;DHT22;4369;47.842;13.096;2023-02-02T05:19:59;4.60;99.90
8664;DHT22;4369;47.842;13.096;2023-02-02T05:22:25;4.60;99.90
8664;DHT22;4369;47.842;13.096;2023-02-02T05:24:52;4.60;99.90
8664;DHT22;4369;47.842;13.096;2023-02-02T05:27:19;4.60;99.90
8664;DHT22;4369;47.842;13.096;2023-02-02T05:29:46;4.60;99.90
8664;DHT22;4369;47.842;13.096;2023-02-02T05:32:13;4.70;99.90
8664;DHT22;4369;47.842;13.096;2023-02-02T05:34:40;4.70;99.90
8664;DHT22;4369;47.842;13.096;2023-02-02T05:37:09;4.60;99.90
8664;DHT22;4369;47.842;13.096;2023-02-02T05:39:35;4.60;99.90
8664;DHT22;4369;47.842;13.096;2023-02-02T05:42:02;4.60;99.90
8664;DHT22;4369;47.842;13.096;2023-02-02T05:44:29;4.60;99.90
8664;DHT22;4369;47.842;13.096;2023-02-02T05:46:56;4.60;99.90
8664;DHT22;4369;47.842;13.096;2023-02-02T05:49:23;4.60;99.90
8664;DHT22;4369;47.842;13.096;2023-02-02T05:51:53;4.50;99.90
8664;DHT22;4369;47.842;13.096;2023-02-02T05:54:23;4.50;99.90
8664;DHT22;4369;47.842;13.096;2023-02-02T05:56:53;4.50;99.90
8664;DHT22;4369;47.842;13.096;2023-02-02T05:59:21;4.40;99.90
8664;DHT22;4369;47.842;13.096;2023-02-02T06:01:48;4.40;99.90
8664;DHT22;4369;47.842;13.096;2023-02-02T06:04:15;4.40;99.90
8664;DHT22;4369;47.842;13.096;2023-02-02T06:06:42;4.40;99.90
8664;DHT22;4369;47.842;13.096;2023-02-02T06:09:10;4.40;99.90
8664;DHT22;4369;47.842;13.096;2023-02-02T06:11:38;4.30;99.90
8664;DHT22;4369;47.842;13.096;2023-02-02T06:14:05;4.30;99.90
8664;DHT22;4369;47.842;13.096;2023-02-02T06:16:33;4.30;99.90
8664;DHT22;4369;47.842;13.096;2023-02-02T06:18:59;4.20;99.90
8664;DHT22;4369;47.842;13.096;2023-02-02T06:21:26;4.20;99.90
8664;DHT22;4369;47.842;13.096;2023-02-02T06:23:56;4.10;99.90
8664;DHT22;4369;47.842;13.096;2023-02-02T06:26:23;4.10;99.90
8664;DHT22;4369;47.842;13.096;2023-02-02T06:28:53;4.10;99.90
8664;DHT22;4369;47.842;13.096;2023-02-02T06:31:21;4.10;99.90
8664;DHT22;4369;47.842;13.096;2023-02-02T06:33:52;4.00;99.90
8664;DHT22;4369;47.842;13.096;2023-02-02T06:36:19;4.10;99.90
8664;DHT22;4369;47.842;13.096;2023-02-02T06:38:48;4.10;99.90
8664;DHT22;4369;47.842;13.096;2023-02-02T06:41:15;4.10;99.90
8664;DHT22;4369;47.842;13.096;2023-02-02T06:43:42;4.10;99.90
8664;DHT22;4369;47.842;13.096;2023-02-02T06:46:10;4.10;99.90
8664;DHT22;4369;47.842;13.096;2023-02-02T06:48:37;4.10;99.90
8664;DHT22;4369;47.842;13.096;2023-02-02T06:51:05;4.10;99.90
8664;DHT22;4369;47.842;13.096;2023-02-02T06:53:32;4.10;99.90
8664;DHT22;4369;47.842;13.096;2023-02-02T06:56:01;4.20;99.90
8664;DHT22;4369;47.842;13.096;2023-02-02T06:58:30;4.20;99.90
8664;DHT22;4369;47.842;13.096;2023-02-02T07:01:00;4.20;99.90
8664;DHT22;4369;47.842;13.096;2023-02-02T07:03:31;4.20;99.90
8664;DHT22;4369;47.842;13.096;2023-02-02T07:05:58;4.20;99.90
8664;DHT22;4369;47.842;13.096;2023-02-02T07:08:25;4.20;99.90
8664;DHT22;4369;47.842;13.096;2023-02-02T07:10:52;4.20;99.90
8664;DHT22;4369;47.842;13.096;2023-02-02T07:13:19;4.30;99.90
8664;DHT22;4369;47.842;13.096;2023-02-02T07:15:46;4.20;99.90
8664;DHT22;4369;47.842;13.096;2023-02-02T07:18:14;4.20;99.90
8664;DHT22;4369;47.842;13.096;2023-02-02T07:20:42;4.20;99.90
8664;DHT22;4369;47.842;13.096;2023-02-02T07:23:09;4.20;99.90
8664;DHT22;4369;47.842;13.096;2023-02-02T07:25:36;4.20;99.90
8664;DHT22;4369;47.842;13.096;2023-02-02T07:28:03;4.20;99.90
8664;DHT22;4369;47.842;13.096;2023-02-02T07:30:31;4.20;99.90
8664;DHT22;4369;47.842;13.096;2023-02-02T07:32:58;4.10;99.90
8664;DHT22;4369;47.842;13.096;2023-02-02T07:35:26;4.10;99.90
8664;DHT22;4369;47.842;13.096;2023-02-02T07:37:55;4.10;99.90
8664;DHT22;4369;47.842;13.096;2023-02-02T07:40:22;4.10;99.90
8664;DHT22;4369;47.842;13.096;2023-02-02T07:42:49;4.10;99.90
8664;DHT22;4369;47.842;13.096;2023-02-02T07:45:16;4.10;99.90
8664;DHT22;4369;47.842;13.096;2023-02-02T07:47:43;4.00;99.90
8664;DHT22;4369;47.842;13.096;2023-02-02T07:50:10;4.00;99.90
8664;DHT22;4369;47.842;13.096;2023-02-02T07:52:37;4.00;99.90
8664;DHT22;4369;47.842;13.096;2023-02-02T07:55:07;4.00;99.90
8664;DHT22;4369;47.842;13.096;2023-02-02T07:57:36;4.00;99.90
8664;DHT22;4369;47.842;13.096;2023-02-02T08:00:04;4.00;99.90
8664;DHT22;4369;47.842;13.096;2023-02-02T08:02:31;4.00;99.90
8664;DHT22;4369;47.842;13.096;2023-02-02T08:04:58;4.00;99.90
8664;DHT22;4369;47.842;13.096;2023-02-02T08:07:25;4.10;99.90
8664;DHT22;4369;47.842;13.096;2023-02-02T08:09:52;4.10;99.90
8664;DHT22;4369;47.842;13.096;2023-02-02T08:12:21;4.20;99.90
8664;DHT22;4369;47.842;13.096;2023-02-02T08:14:49;4.20;99.90
8664;DHT22;4369;47.842;13.096;2023-02-02T08:17:15;4.20;99.90
8664;DHT22;4369;47.842;13.096;2023-02-02T08:19:43;4.20;99.90
8664;DHT22;4369;47.842;13.096;2023-02-02T08:22:10;4.30;99.90
8664;DHT22;4369;47.842;13.096;2023-02-02T08:24:36;4.30;99.90
8664;DHT22;4369;47.842;13.096;2023-02-02T08:27:05;4.30;99.90
8664;DHT22;4369;47.842;13.096;2023-02-02T08:29:34;4.30;99.90
8664;DHT22;4369;47.842;13.096;2023-02-02T08:32:02;4.40;99.90
8664;DHT22;4369;47.842;13.096;2023-02-02T08:34:29;4.40;99.90
8664;DHT22;4369;47.842;13.096;2023-02-02T08:36:59;4.40;99.90
8664;DHT22;4369;47.842;13.096;2023-02-02T08:39:26;4.40;99.90
8664;DHT22;4369;47.842;13.096;2023-02-02T08:41:53;4.40;99.90
8664;DHT22;4369;47.842;13.096;2023-02-02T08:44:20;4.50;99.90
8664;DHT22;4369;47.842;13.096;2023-02-02T08:46:48;4.40;99.90
8664;DHT22;4369;47.842;13.096;2023-02-02T08:49:15;4.50;99.90
8664;DHT22;4369;47.842;13.096;2023-02-02T08:51:42;4.50;99.90
8664;DHT22;4369;47.842;13.096;2023-02-02T08:54:09;4.50;99.90
8664;DHT22;4369;47.842;13.096;2023-02-02T08:56:36;4.50;99.90
8664;DHT22;4369;47.842;13.096;2023-02-02T08:59:04;4.50;99.90
8664;DHT22;4369;47.842;13.096;2023-02-02T09:01:32;4.60;99.90
8664;DHT22;4369;47.842;13.096;2023-02-02T09:04:02;4.60;99.90
8664;DHT22;4369;47.842;13.096;2023-02-02T09:06:31;4.60;99.90
8664;DHT22;4369;47.842;13.096;2023-02-02T09:08:59;4.60;99.90
8664;DHT22;4369;47.842;13.096;2023-02-02T09:11:26;4.70;99.90
8664;DHT22;4369;47.842;13.096;2023-02-02T09:13:54;4.60;99.90
8664;DHT22;4369;47.842;13.096;2023-02-02T09:16:22;4.70;99.90
8664;DHT22;4369;47.842;13.096;2023-02-02T09:18:49;4.60;99.90
8664;DHT22;4369;47.842;13.096;2023-02-02T09:21:18;4.60;99.90
8664;DHT22;4369;47.842;13.096;2023-02-02T09:23:46;4.60;99.90
8664;DHT22;4369;47.842;13.096;2023-02-02T09:26:15;4.60;99.90
8664;DHT22;4369;47.842;13.096;2023-02-02T09:28:44;4.60;99.90
8664;DHT22;4369;47.842;13.096;2023-02-02T09:31:13;4.70;99.90
8664;DHT22;4369;47.842;13.096;2023-02-02T09:33:41;4.70;99.90
8664;DHT22;4369;47.842;13.096;2023-02-02T09:36:10;4.70;99.90
8664;DHT22;4369;47.842;13.096;2023-02-02T09:38:39;4.80;99.90
8664;DHT22;4369;47.842;13.096;2023-02-02T09:41:47;4.80;99.90
8664;DHT22;4369;47.842;13.096;2023-02-02T09:44:26;4.80;99.90
8664;DHT22;4369;47.842;13.096;2023-02-02T09:47:07;4.80;99.90
8664;DHT22;4369;47.842;13.096;2023-02-02T09:49:42;4.80;99.90
8664;DHT22;4369;47.842;13.096;2023-02-02T09:52:15;4.90;99.90
8664;DHT22;4369;47.842;13.096;2023-02-02T09:54:46;4.90;99.90
8664;DHT22;4369;47.842;13.096;2023-02-02T09:57:18;4.90;99.90
8664;DHT22;4369;47.842;13.096;2023-02-02T09:59:47;4.90;99.90
8664;DHT22;4369;47.842;13.096;2023-02-02T10:02:17;5.00;99.90
8664;DHT22;4369;47.842;13.096;2023-02-02T10:04:48;5.00;99.90
8664;DHT22;4369;47.842;13.096;2023-02-02T10:07:19;4.90;99.90
8664;DHT22;4369;47.842;13.096;2023-02-02T10:09:54;4.90;99.90
8664;DHT22;4369;47.842;13.096;2023-02-02T10:12:32;4.90;99.90
8664;DHT22;4369;47.842;13.096;2023-02-02T10:15:05;4.90;99.90
8664;DHT22;4369;47.842;13.096;2023-02-02T10:17:42;4.90;99.90
8664;DHT22;4369;47.842;13.096;2023-02-02T10:20:23;4.80;99.90
8664;DHT22;4369;47.842;13.096;2023-02-02T10:22:53;4.80;99.90
8664;DHT22;4369;47.842;13.096;2023-02-02T10:25:26;4.80;99.90
8664;DHT22;4369;47.842;13.096;2023-02-02T10:27:59;4.70;99.90
8664;DHT22;4369;47.842;13.096;2023-02-02T10:30:35;4.60;99.90
8664;DHT22;4369;47.842;13.096;2023-02-02T10:33:06;4.60;99.90
8664;DHT22;4369;47.842;13.096;2023-02-02T10:35:40;4.60;99.90
8664;DHT22;4369;47.842;13.096;2023-02-02T10:38:14;4.60;99.90
8664;DHT22;4369;47.842;13.096;2023-02-02T10:40:50;4.60;99.90
8664;DHT22;4369;47.842;13.096;2023-02-02T10:43:40;4.60;99.90
8664;DHT22;4369;47.842;13.096;2023-02-02T10:46:17;4.60;99.90
8664;DHT22;4369;47.842;13.096;2023-02-02T10:48:46;4.60;99.90
8664;DHT22;4369;47.842;13.096;2023-02-02T10:51:19;4.50;99.90
8664;DHT22;4369;47.842;13.096;2023-02-02T10:53:51;4.50;99.90
8664;DHT22;4369;47.842;13.096;2023-02-02T10:56:24;4.40;99.90
8664;DHT22;4369;47.842;13.096;2023-02-02T10:58:56;4.40;99.90
8664;DHT22;4369;47.842;13.096;2023-02-02T11:01:24;4.40;99.90
8664;DHT22;4369;47.842;13.096;2023-02-02T11:03:51;4.40;99.90
8664;DHT22;4369;47.842;13.096;2023-02-02T11:06:38;4.30;99.90
8664;DHT22;4369;47.842;13.096;2023-02-02T11:09:21;4.20;99.90
8664;DHT22;4369;47.842;13.096;2023-02-02T11:11:53;4.30;99.90
8664;DHT22;4369;47.842;13.096;2023-02-02T11:14:29;4.30;99.90
8664;DHT22;4369;47.842;13.096;2023-02-02T11:17:01;4.30;99.90
8664;DHT22;4369;47.842;13.096;2023-02-02T11:19:30;4.30;99.90
8664;DHT22;4369;47.842;13.096;2023-02-02T11:21:58;4.20;99.90
8664;DHT22;4369;47.842;13.096;2023-02-02T11:24:27;4.20;99.90
8664;DHT22;4369;47.842;13.096;2023-02-02T11:27:00;4.20;99.90
8664;DHT22;4369;47.842;13.096;2023-02-02T11:29:30;4.20;99.90
8664;DHT22;4369;47.842;13.096;2023-02-02T11:32:16;4.10;99.90
8664;DHT22;4369;47.842;13.096;2023-02-02T11:34:44;4.10;99.90
8664;DHT22;4369;47.842;13.096;2023-02-02T11:37:12;4.10;99.90
8664;DHT22;4369;47.842;13.096;2023-02-02T11:39:40;4.10;99.90
8664;DHT22;4369;47.842;13.096;2023-02-02T11:42:12;4.20;99.90
8664;DHT22;4369;47.842;13.096;2023-02-02T11:44:43;4.20;99.90
8664;DHT22;4369;47.842;13.096;2023-02-02T11:47:18;4.20;99.90
8664;DHT22;4369;47.842;13.096;2023-02-02T11:49:46;4.10;99.90
8664;DHT22;4369;47.842;13.096;2023-02-02T11:52:17;4.10;99.90
8664;DHT22;4369;47.842;13.096;2023-02-02T11:54:47;4.10;99.90
8664;DHT22;4369;47.842;13.096;2023-02-02T11:57:18;4.10;99.90
8664;DHT22;4369;47.842;13.096;2023-02-02T11:59:46;4.20;99.90
8664;DHT22;4369;47.842;13.096;2023-02-02T12:02:31;4.20;99.90
8664;DHT22;4369;47.842;13.096;2023-02-02T12:05:32;4.20;99.90
8664;DHT22;4369;47.842;13.096;2023-02-02T12:07:59;4.20;99.90
8664;DHT22;4369;47.842;13.096;2023-02-02T12:10:33;4.20;99.90
8664;DHT22;4369;47.842;13.096;2023-02-02T12:13:07;4.30;99.90
8664;DHT22;4369;47.842;13.096;2023-02-02T12:15:45;4.30;99.90
8664;DHT22;4369;47.842;13.096;2023-02-02T12:18:29;4.30;99.90
8664;DHT22;4369;47.842;13.096;2023-02-02T12:21:03;4.30;99.90
8664;DHT22;4369;47.842;13.096;2023-02-02T12:23:57;4.30;99.90
8664;DHT22;4369;47.842;13.096;2023-02-02T12:26:30;4.40;99.90
8664;DHT22;4369;47.842;13.096;2023-02-02T12:29:21;4.40;99.90
8664;DHT22;4369;47.842;13.096;2023-02-02T12:32:14;4.40;99.90
8664;DHT22;4369;47.842;13.096;2023-02-02T12:34:53;4.40;99.90
8664;DHT22;4369;47.842;13.096;2023-02-02T12:37:31;4.40;99.90
8664;DHT22;4369;47.842;13.096;2023-02-02T12:40:14;4.50;99.90
8664;DHT22;4369;47.842;13.096;2023-02-02T12:42:52;4.50;99.90
8664;DHT22;4369;47.842;13.096;2023-02-02T12:45:46;4.50;99.90
8664;DHT22;4369;47.842;13.096;2023-02-02T12:48:24;4.50;99.90
8664;DHT22;4369;47.842;13.096;2023-02-02T12:51:04;4.50;99.90
8664;DHT22;4369;47.842;13.096;2023-02-02T12:53:46;4.50;99.90
8664;DHT22;4369;47.842;13.096;2023-02-02T12:56:23;4.50;99.90
8664;DHT22;4369;47.842;13.096;2023-02-02T12:58:56;4.50;99.90
8664;DHT22;4369;47.842;13.096;2023-02-02T13:01:39;4.50;99.90
8664;DHT22;4369;47.842;13.096;2023-02-02T13:04:27;4.60;99.90
8664;DHT22;4369;47.842;13.096;2023-02-02T13:07:19;4.60;99.90
8664;DHT22;4369;47.842;13.096;2023-02-02T13:10:00;4.50;99.90
8664;DHT22;4369;47.842;13.096;2023-02-02T13:12:32;4.50;99.90
8664;DHT22;4369;47.842;13.096;2023-02-02T13:15:02;4.40;99.90
8664;DHT22;4369;47.842;13.096;2023-02-02T13:17:39;4.40;99.90
8664;DHT22;4369;47.842;13.096;2023-02-02T13:20:17;4.50;99.90
8664;DHT22;4369;47.842;13.096;2023-02-02T13:22:46;4.40;99.90
8664;DHT22;4369;47.842;13.096;2023-02-02T13:25:18;4.40;99.90
8664;DHT22;4369;47.842;13.096;2023-02-02T13:27:47;4.40;99.90
8664;DHT22;4369;47.842;13.096;2023-02-02T13:30:24;4.30;99.90
8664;DHT22;4369;47.842;13.096;2023-02-02T13:32:57;4.40;99.90
8664;DHT22;4369;47.842;13.096;2023-02-02T13:35:28;4.40;99.90
8664;DHT22;4369;47.842;13.096;2023-02-02T13:38:03;4.40;99.90
8664;DHT22;4369;47.842;13.096;2023-02-02T13:40:34;4.40;99.90
8664;DHT22;4369;47.842;13.096;2023-02-02T13:43:10;4.40;99.90
8664;DHT22;4369;47.842;13.096;2023-02-02T13:45:49;4.40;99.90
8664;DHT22;4369;47.842;13.096;2023-02-02T13:48:28;4.40;99.90
8664;DHT22;4369;47.842;13.096;2023-02-02T13:57:09;4.40;99.90
8664;DHT22;4369;47.842;13.096;2023-02-02T13:59:49;4.40;99.90
8664;DHT22;4369;47.842;13.096;2023-02-02T14:02:20;4.40;99.90
8664;DHT22;4369;47.842;13.096;2023-02-02T14:04:56;4.40;99.90
8664;DHT22;4369;47.842;13.096;2023-02-02T14:07:33;4.40;99.90
8664;DHT22;4369;47.842;13.096;2023-02-02T14:10:01;4.30;99.90
8664;DHT22;4369;47.842;13.096;2023-02-02T14:12:31;4.30;99.90
8664;DHT22;4369;47.842;13.096;2023-02-02T14:14:59;4.30;99.90
8664;DHT22;4369;47.842;13.096;2023-02-02T14:17:49;4.30;99.90
8664;DHT22;4369;47.842;13.096;2023-02-02T14:20:41;4.30;99.90
8664;DHT22;4369;47.842;13.096;2023-02-02T14:26:18;4.30;99.90
8664;DHT22;4369;47.842;13.096;2023-02-02T14:28:48;4.20;99.90
8664;DHT22;4369;47.842;13.096;2023-02-02T14:31:41;4.30;99.90
8664;DHT22;4369;47.842;13.096;2023-02-02T14:34:33;4.30;99.90
8664;DHT22;4369;47.842;13.096;2023-02-02T14:37:45;4.30;99.90
8664;DHT22;4369;47.842;13.096;2023-02-02T14:40:25;4.30;99.90
8664;DHT22;4369;47.842;13.096;2023-02-02T14:43:05;4.20;99.90
8664;DHT22;4369;47.842;13.096;2023-02-02T14:49:14;4.20;99.90
8664;DHT22;4369;47.842;13.096;2023-02-02T14:51:55;4.20;99.90
8664;DHT22;4369;47.842;13.096;2023-02-02T14:54:27;4.20;99.90
8664;DHT22;4369;47.842;13.096;2023-02-02T14:56:58;4.20;99.90
8664;DHT22;4369;47.842;13.096;2023-02-02T14:59:29;4.20;99.90
8664;DHT22;4369;47.842;13.096;2023-02-02T15:02:11;4.20;99.90
8664;DHT22;4369;47.842;13.096;2023-02-02T15:04:39;4.20;99.90
8664;DHT22;4369;47.842;13.096;2023-02-02T15:07:35;4.20;99.90
8664;DHT22;4369;47.842;13.096;2023-02-02T15:10:04;4.20;99.90
8664;DHT22;4369;47.842;13.096;2023-02-02T15:12:36;4.30;99.90
8664;DHT22;4369;47.842;13.096;2023-02-02T15:15:14;4.30;99.90
8664;DHT22;4369;47.842;13.096;2023-02-02T15:17:54;4.30;99.90
8664;DHT22;4369;47.842;13.096;2023-02-02T15:20:27;4.30;99.90
8664;DHT22;4369;47.842;13.096;2023-02-02T15:22:58;4.20;99.90
8664;DHT22;4369;47.842;13.096;2023-02-02T15:25:31;4.20;99.90
8664;DHT22;4369;47.842;13.096;2023-02-02T15:28:07;4.20;99.90
8664;DHT22;4369;47.842;13.096;2023-02-02T15:30:35;4.20;99.90
8664;DHT22;4369;47.842;13.096;2023-02-02T15:33:14;4.20;99.90
8664;DHT22;4369;47.842;13.096;2023-02-02T15:35:43;4.10;99.90
8664;DHT22;4369;47.842;13.096;2023-02-02T15:38:13;4.10;99.90
8664;DHT22;4369;47.842;13.096;2023-02-02T15:40:43;4.10;99.90
8664;DHT22;4369;47.842;13.096;2023-02-02T15:43:11;4.10;99.90
8664;DHT22;4369;47.842;13.096;2023-02-02T15:45:42;4.10;99.90
8664;DHT22;4369;47.842;13.096;2023-02-02T15:48:21;4.10;99.90
8664;DHT22;4369;47.842;13.096;2023-02-02T15:50:50;4.10;99.90
8664;DHT22;4369;47.842;13.096;2023-02-02T15:53:22;4.10;99.90
8664;DHT22;4369;47.842;13.096;2023-02-02T15:55:51;4.00;99.90
8664;DHT22;4369;47.842;13.096;2023-02-02T15:58:28;4.00;99.90
8664;DHT22;4369;47.842;13.096;2023-02-02T16:00:58;4.00;99.90
8664;DHT22;4369;47.842;13.096;2023-02-02T16:06:13;4.00;99.90
8664;DHT22;4369;47.842;13.096;2023-02-02T16:08:41;4.00;99.90
8664;DHT22;4369;47.842;13.096;2023-02-02T16:11:11;4.10;99.90
8664;DHT22;4369;47.842;13.096;2023-02-02T16:13:39;4.10;99.90
8664;DHT22;4369;47.842;13.096;2023-02-02T16:16:21;4.00;99.90
8664;DHT22;4369;47.842;13.096;2023-02-02T16:19:01;4.00;99.90
8664;DHT22;4369;47.842;13.096;2023-02-02T16:21:28;4.00;99.90
8664;DHT22;4369;47.842;13.096;2023-02-02T16:23:56;4.10;99.90
8664;DHT22;4369;47.842;13.096;2023-02-02T16:26:28;4.10;99.90
8664;DHT22;4369;47.842;13.096;2023-02-02T16:28:56;4.10;99.90
8664;DHT22;4369;47.842;13.096;2023-02-02T16:31:23;4.10;99.90
8664;DHT22;4369;47.842;13.096;2023-02-02T16:33:51;4.10;99.90
8664;DHT22;4369;47.842;13.096;2023-02-02T16:36:20;4.10;99.90
8664;DHT22;4369;47.842;13.096;2023-02-02T16:38:48;4.10;99.90
8664;DHT22;4369;47.842;13.096;2023-02-02T16:41:30;4.10;99.90
8664;DHT22;4369;47.842;13.096;2023-02-02T16:47:32;4.10;99.90
8664;DHT22;4369;47.842;13.096;2023-02-02T16:50:22;4.10;99.90
8664;DHT22;4369;47.842;13.096;2023-02-02T16:52:52;4.10;99.90
8664;DHT22;4369;47.842;13.096;2023-02-02T16:55:20;4.00;99.90